WXM80 ListenWXM80 Stop

You find our weather info also at:

UK Metoffice

WeatherCloud

Weather Underground

Northeastern Weather Network

AWEKAS

Citizen Weather Observer Program (CWOP)

HAMweather, WeatherForYou, PWS Weather


Weather Underground History page Text

Daily Summary for April 12, 2017 Units:  Metric    English   Both
« Previous Day
Next Day »
Daily Weekly Monthly Yearly Custom
  High: Low: Average:
Temperature: 22.1 °C 9 °C 15 °C
Dew Point: 15.6 °C 7.7 °C 11.4 °C
Humidity: 95 % 59 % 80 %
Wind Speed: 11.1 km/h 0 km/h 1.3 km/h
Wind Gust: 14.8 km/h - -
Wind:- - SW
Pressure: 1022.9 hPa 1017.5 hPa -
Precipitation: 0 mm    
Historical Graphs
 
 
Tabular Data for April 12, 2017
Time Temperature Dew Point Pressure Wind Wind Speed Wind Gust Humidity Rainfall Rate (Hourly)
00:02 13.3 °C 10.1 °C 1018.5 hPa Calm     81 % 0 mm
00:07 13.2 °C 10 °C 1018.5 hPa Calm   1.9 km/h 81 % 0 mm
00:09 13 °C 9.6 °C 1018.5 hPa North 0.8 km/h 1.9 km/h 80 % 0 mm
00:14 12.7 °C 9.3 °C 1018.5 hPa North 1 km/h 3.2 km/h 80 % 0 mm
00:19 12.5 °C 9.2 °C 1018.5 hPa Calm   1.9 km/h 80 % 0 mm
00:24 12.3 °C 9.2 °C 1018.2 hPa North 0.5 km/h 1.9 km/h 81 % 0 mm
00:29 12.2 °C 9.2 °C 1018.2 hPa Calm     82 % 0 mm
00:34 12.1 °C 9.1 °C 1018.2 hPa Calm     82 % 0 mm
00:39 11.9 °C 9.2 °C 1018.5 hPa North 4.2 km/h 5.6 km/h 83 % 0 mm
00:44 11.8 °C 9.1 °C 1018.5 hPa Calm     83 % 0 mm
00:49 11.8 °C 9.2 °C 1018.5 hPa Calm     84 % 0 mm
00:54 11.7 °C 9.1 °C 1018.5 hPa Calm     84 % 0 mm
00:59 11.6 °C 9.1 °C 1018.5 hPa Calm     85 % 0 mm
01:04 11.5 °C 9.1 °C 1018.5 hPa Calm     85 % 0 mm
01:09 11.4 °C 9 °C 1018.5 hPa Calm     85 % 0 mm
01:14 11.4 °C 8.9 °C 1018.5 hPa Calm     85 % 0 mm
01:19 11.3 °C 9.1 °C 1018.5 hPa Calm     86 % 0 mm
01:24 11.3 °C 9 °C 1018.5 hPa Calm     86 % 0 mm
01:29 11.2 °C 8.9 °C 1018.5 hPa North 0.3 km/h 1.9 km/h 86 % 0 mm
01:34 11.2 °C 9.1 °C 1018.5 hPa Calm     87 % 0 mm
01:39 11.2 °C 9.1 °C 1018.5 hPa Calm     87 % 0 mm
01:49 11.2 °C 9.4 °C 1018.2 hPa North 1.6 km/h 3.7 km/h 89 % 0 mm
01:54 11.2 °C 9.4 °C 1018.2 hPa North 1.1 km/h 1.9 km/h 89 % 0 mm
01:59 11.2 °C 9.4 °C 1018.5 hPa Calm     89 % 0 mm
02:04 11.1 °C 9.4 °C 1018.2 hPa Calm     89 % 0 mm
02:09 11.2 °C 9.6 °C 1018.2 hPa Calm     90 % 0 mm
02:14 11.1 °C 9.6 °C 1017.8 hPa North 1.4 km/h 3.7 km/h 90 % 0 mm
02:19 11.1 °C 9.4 °C 1017.8 hPa North 0.3 km/h 3.7 km/h 89 % 0 mm
02:24 11.1 °C 9.6 °C 1017.8 hPa Calm   1.9 km/h 90 % 0 mm
02:29 11.1 °C 9.6 °C 1017.8 hPa North 0.5 km/h 1.9 km/h 90 % 0 mm
02:34 11.1 °C 9.5 °C 1017.8 hPa Calm     90 % 0 mm
02:39 11.1 °C 9.7 °C 1017.8 hPa Calm     91 % 0 mm
02:44 11.1 °C 9.7 °C 1017.5 hPa Calm     91 % 0 mm
02:49 11.1 °C 9.7 °C 1017.8 hPa Calm   1.9 km/h 91 % 0 mm
02:54 11.1 °C 9.7 °C 1017.8 hPa North 0.2 km/h 1.9 km/h 91 % 0 mm
02:59 11.1 °C 9.7 °C 1017.8 hPa Calm     91 % 0 mm
03:04 11.1 °C 9.7 °C 1017.8 hPa Calm     91 % 0 mm
03:09 11.1 °C 9.7 °C 1017.8 hPa Calm     91 % 0 mm
03:14 11.1 °C 9.7 °C 1017.5 hPa Calm     91 % 0 mm
03:19 10.9 °C 9.4 °C 1017.5 hPa Calm     90 % 0 mm
03:24 10.8 °C 9.1 °C 1017.5 hPa Calm     89 % 0 mm
03:29 10.8 °C 9.1 °C 1017.5 hPa Calm     89 % 0 mm
03:34 10.7 °C 8.9 °C 1017.5 hPa Calm     89 % 0 mm
03:39 10.6 °C 8.9 °C 1017.5 hPa Calm     89 % 0 mm
03:44 10.6 °C 8.7 °C 1017.5 hPa Calm     88 % 0 mm
03:49 10.4 °C 8.6 °C 1017.5 hPa Calm     88 % 0 mm
03:54 10.3 °C 8.4 °C 1017.5 hPa Calm     88 % 0 mm
03:59 10.2 °C 8.3 °C 1017.5 hPa Calm     88 % 0 mm
04:04 10.2 °C 8.3 °C 1017.5 hPa Calm     88 % 0 mm
04:09 10.1 °C 8.2 °C 1017.5 hPa Calm     88 % 0 mm
04:14 10 °C 8.3 °C 1017.5 hPa Calm     89 % 0 mm
04:19 10 °C 8.3 °C 1017.5 hPa Calm   3.7 km/h 89 % 0 mm
04:24 9.9 °C 8.2 °C 1017.5 hPa North 0.2 km/h 1.6 km/h 89 % 0 mm
04:29 9.9 °C 8.3 °C 1017.5 hPa Calm     90 % 0 mm
04:34 9.8 °C 8.3 °C 1017.5 hPa North 0.2 km/h 1.6 km/h 90 % 0 mm
04:39 9.8 °C 8.3 °C 1017.5 hPa North 0.8 km/h 1.9 km/h 90 % 0 mm
04:44 9.8 °C 8.4 °C 1017.5 hPa Calm     91 % 0 mm
04:49 9.8 °C 8.4 °C 1017.5 hPa Calm     91 % 0 mm
04:54 9.7 °C 8.3 °C 1017.5 hPa Calm     91 % 0 mm
04:59 9.7 °C 8.3 °C 1017.8 hPa Calm     91 % 0 mm
05:04 9.7 °C 8.3 °C 1017.8 hPa Calm     91 % 0 mm
05:09 9.6 °C 8.2 °C 1017.8 hPa Calm     91 % 0 mm
05:14 9.6 °C 8.2 °C 1018.2 hPa Calm     91 % 0 mm
05:19 9.5 °C 8.1 °C 1018.2 hPa Calm     91 % 0 mm
05:24 9.4 °C 8.1 °C 1018.2 hPa Calm     91 % 0 mm
05:29 9.4 °C 8.1 °C 1018.2 hPa Calm     91 % 0 mm
05:34 9.3 °C 7.9 °C 1018.2 hPa Calm     91 % 0 mm
05:39 9.3 °C 7.9 °C 1018.2 hPa Calm     91 % 0 mm
05:44 9.3 °C 7.9 °C 1018.2 hPa Calm     91 % 0 mm
05:49 9.2 °C 7.8 °C 1018.2 hPa Calm     91 % 0 mm
05:54 9.2 °C 7.8 °C 1018.2 hPa Calm     91 % 0 mm
05:59 9.1 °C 7.7 °C 1018.2 hPa Calm     91 % 0 mm
06:04 9.1 °C 7.8 °C 1018.5 hPa North 1.6 km/h 3.7 km/h 92 % 0 mm
06:09 9.1 °C 7.8 °C 1018.2 hPa Calm     92 % 0 mm
06:14 9.1 °C 7.8 °C 1018.2 hPa Calm     92 % 0 mm
06:19 9 °C 7.8 °C 1018.2 hPa Calm     92 % 0 mm
06:24 9 °C 7.8 °C 1018.2 hPa Calm     92 % 0 mm
06:29 9 °C 7.8 °C 1018.2 hPa Calm     92 % 0 mm
06:35 9 °C 7.9 °C 1018.5 hPa Calm     93 % 0 mm
06:40 9 °C 7.9 °C 1018.5 hPa Calm     93 % 0 mm
06:45 9 °C 7.9 °C 1018.5 hPa Calm     93 % 0 mm
06:50 9.1 °C 8 °C 1018.5 hPa Calm     93 % 0 mm
06:55 9.1 °C 8.1 °C 1018.5 hPa Calm     93 % 0 mm
07:00 9.2 °C 8.2 °C 1018.5 hPa Calm     93 % 0 mm
07:05 9.3 °C 8.4 °C 1018.5 hPa Calm     94 % 0 mm
07:10 9.5 °C 8.6 °C 1018.5 hPa Calm     94 % 0 mm
07:15 9.7 °C 8.9 °C 1018.5 hPa Calm     95 % 0 mm
07:20 9.8 °C 9.1 °C 1018.5 hPa Calm     95 % 0 mm
07:25 10.1 °C 9.3 °C 1018.2 hPa Calm     95 % 0 mm
07:30 10.3 °C 9.6 °C 1018.2 hPa Calm     95 % 0 mm
07:35 10.6 °C 9.8 °C 1018.5 hPa NNW 3.2 km/h 5.6 km/h 95 % 0 mm
07:40 10.8 °C 10.1 °C 1018.2 hPa NNW 1.6 km/h 1.9 km/h 95 % 0 mm
07:45 11 °C 10.2 °C 1018.5 hPa North 2.6 km/h 4.8 km/h 95 % 0 mm
07:50 11.2 °C 10.4 °C 1018.5 hPa North 1.3 km/h 5.6 km/h 95 % 0 mm
07:55 11.4 °C 10.4 °C 1018.5 hPa Calm   3.7 km/h 94 % 0 mm
08:00 11.6 °C 10.6 °C 1018.5 hPa NNE 2.1 km/h 5.6 km/h 94 % 0 mm
08:05 11.7 °C 10.4 °C 1018.5 hPa NNE 0.2 km/h 1.9 km/h 92 % 0 mm
08:11 11.8 °C 10.3 °C 1018.5 hPa NNE 0.5 km/h 3.2 km/h 91 % 0 mm
08:16 11.9 °C 10.4 °C 1018.5 hPa Calm   1.9 km/h 91 % 0 mm
08:21 12.1 °C 10.4 °C 1018.5 hPa NNE 0.2 km/h 1.6 km/h 90 % 0 mm
08:26 12.2 °C 10.8 °C 1018.8 hPa NNE 0.2 km/h 1.9 km/h 91 % 0 mm
08:31 12.4 °C 10.8 °C 1018.8 hPa Calm   1.9 km/h 90 % 0 mm
08:36 12.7 °C 10.9 °C 1018.8 hPa NNE 1 km/h 1.9 km/h 89 % 0 mm
08:41 13.1 °C 11.3 °C 1018.8 hPa NNE 1.6 km/h 3.7 km/h 89 % 0 mm
08:46 13.3 °C 11.2 °C 1018.8 hPa NNE 0.8 km/h 1.9 km/h 87 % 0 mm
08:51 13.6 °C 11.3 °C 1018.5 hPa NNE 1.6 km/h 3.7 km/h 86 % 0 mm
08:56 13.7 °C 11.4 °C 1018.5 hPa NNE 0.3 km/h 1.9 km/h 86 % 0 mm
09:01 13.9 °C 11.4 °C 1018.5 hPa NNE 1.9 km/h 5.6 km/h 85 % 0 mm
09:06 14.1 °C 11.4 °C 1018.5 hPa NNE 2.9 km/h 5.6 km/h 84 % 0 mm
09:11 14.2 °C 11.6 °C 1018.5 hPa NNE 1.1 km/h 3.7 km/h 84 % 0 mm
09:16 14.4 °C 11.7 °C 1018.8 hPa NNE 0.6 km/h 1.9 km/h 84 % 0 mm
09:21 14.6 °C 11.9 °C 1018.8 hPa Calm   1.9 km/h 84 % 0 mm
09:26 15 °C 12.3 °C 1018.8 hPa NNE 1 km/h 5.6 km/h 84 % 0 mm
09:31 15.3 °C 12.2 °C 1018.8 hPa NE 1.3 km/h 1.9 km/h 82 % 0 mm
09:36 15.3 °C 11.8 °C 1018.8 hPa NE 1.6 km/h 3.7 km/h 80 % 0 mm
09:41 15.3 °C 11.7 °C 1018.8 hPa NE 0.3 km/h 1.9 km/h 79 % 0 mm
09:46 15.5 °C 12.6 °C 1018.8 hPa NE 0.8 km/h 3.7 km/h 83 % 0 mm
09:51 15.9 °C 12.6 °C 1018.8 hPa NE 1.4 km/h 3.7 km/h 81 % 0 mm
09:56 16.2 °C 12.8 °C 1019.2 hPa NNW 3.4 km/h 5.6 km/h 80 % 0 mm
10:01 16.2 °C 11.8 °C 1019.2 hPa NNW 3.5 km/h 5.6 km/h 75 % 0 mm
10:07 16.2 °C 12 °C 1019.2 hPa Calm   3.7 km/h 76 % 0 mm
10:12 16.3 °C 11.8 °C 1019.2 hPa NW 1.6 km/h 5.6 km/h 75 % 0 mm
10:17 16.3 °C 11.9 °C 1019.2 hPa NW 3.1 km/h 5.6 km/h 75 % 0 mm
10:22 16.4 °C 12.2 °C 1019.5 hPa NW 3.7 km/h 5.6 km/h 76 % 0 mm
10:27 16.4 °C 12 °C 1019.5 hPa NW 2.7 km/h 6.4 km/h 75 % 0 mm
10:32 16.4 °C 12.2 °C 1019.2 hPa Calm   1.9 km/h 76 % 0 mm
10:37 16.7 °C 12.4 °C 1019.5 hPa Calm   1.6 km/h 76 % 0 mm
10:42 16.9 °C 12.8 °C 1019.5 hPa Calm   1.9 km/h 77 % 0 mm
10:52 17.3 °C 12.8 °C 1019.5 hPa WNW 2.7 km/h 5.6 km/h 75 % 0 mm
10:57 17.7 °C 13.2 °C 1019.5 hPa WNW 2.3 km/h 4.8 km/h 75 % 0 mm
11:02 18 °C 13.1 °C 1019.5 hPa WNW 3.2 km/h 8 km/h 73 % 0 mm
11:07 18.3 °C 13.2 °C 1019.5 hPa WNW 3.2 km/h 9.7 km/h 72 % 0 mm
11:12 18.5 °C 12.7 °C 1019.5 hPa West 4.8 km/h 8 km/h 69 % 0 mm
11:17 18.6 °C 12.6 °C 1019.5 hPa WNW 3.2 km/h 6.4 km/h 68 % 0 mm
11:22 18.4 °C 12.4 °C 1019.9 hPa WNW 3.2 km/h 8 km/h 68 % 0 mm
11:27 18.3 °C 12.2 °C 1019.9 hPa WNW 4.8 km/h 9.7 km/h 68 % 0 mm
11:32 17.9 °C 11.9 °C 1019.9 hPa WNW 4.8 km/h 9.7 km/h 68 % 0 mm
11:37 17.5 °C 11.7 °C 1020.2 hPa WNW 6.4 km/h 13 km/h 69 % 0 mm
11:42 16.9 °C 11.7 °C 1020.2 hPa West 3.2 km/h 7.4 km/h 71 % 0 mm
11:47 16.7 °C 11.8 °C 1020.2 hPa West 2.3 km/h 9.3 km/h 73 % 0 mm
11:57 16.7 °C 12.4 °C 1020.2 hPa WSW 3.2 km/h 6.4 km/h 76 % 0 mm
12:02 16.9 °C 12.5 °C 1020.2 hPa West 6 km/h 9.3 km/h 75 % 0 mm
12:07 17.2 °C 12.6 °C 1020.2 hPa WSW 3.7 km/h 9.7 km/h 74 % 0 mm
12:12 17.4 °C 12.8 °C 1020.2 hPa SW 6 km/h 11.1 km/h 74 % 0 mm
12:17 17.6 °C 12.7 °C 1020.2 hPa WNW 11.1 km/h 14.8 km/h 73 % 0 mm
12:22 17.7 °C 12.6 °C 1020.2 hPa West 7.7 km/h 13 km/h 72 % 0 mm
12:27 17.7 °C 12.6 °C 1020.5 hPa NW 7.4 km/h 13 km/h 72 % 0 mm
12:32 17.7 °C 12.6 °C 1020.5 hPa SW 4 km/h 11.1 km/h 72 % 0 mm
12:42 17.7 °C 12.1 °C 1020.5 hPa WNW 7.2 km/h 11.1 km/h 70 % 0 mm
12:47 17.7 °C 11.9 °C 1020.9 hPa WNW 7.7 km/h 14.8 km/h 69 % 0 mm
12:52 17.8 °C 11.8 °C 1020.9 hPa WNW 6.6 km/h 13 km/h 68 % 0 mm
13:02 17.7 °C 13.2 °C 1020.9 hPa NW 5 km/h 8 km/h 75 % 0 mm
13:07 17.5 °C 13.6 °C 1020.5 hPa West 3.9 km/h 5.6 km/h 78 % 0 mm
13:13 17.3 °C 13.4 °C 1020.2 hPa WNW 0.6 km/h 5.6 km/h 78 % 0 mm
13:18 17.1 °C 13.6 °C 1020.2 hPa WNW 0.2 km/h 1.9 km/h 80 % 0 mm
13:23 16.9 °C 13.7 °C 1020.5 hPa WNW 6.1 km/h 9.7 km/h 81 % 0 mm
13:28 16.7 °C 13.4 °C 1020.5 hPa WNW 5.6 km/h 11.1 km/h 81 % 0 mm
13:33 16.4 °C 13.3 °C 1020.5 hPa NW 2.3 km/h 5.6 km/h 82 % 0 mm
13:38 16.3 °C 13.4 °C 1020.2 hPa West 5.5 km/h 7.4 km/h 83 % 0 mm
13:48 16.1 °C 13.6 °C 1019.9 hPa West 1.4 km/h 5.6 km/h 85 % 0 mm
13:58 16.1 °C 13.8 °C 1019.5 hPa Calm     86 % 0 mm
14:03 16.2 °C 13.8 °C 1019.5 hPa Calm     86 % 0 mm
14:08 16.2 °C 13.9 °C 1019.5 hPa Calm     86 % 0 mm
14:13 16.3 °C 13.9 °C 1019.2 hPa Calm     86 % 0 mm
14:18 16.4 °C 14.1 °C 1018.8 hPa West 0.3 km/h 1.9 km/h 86 % 0 mm
14:23 16.5 °C 13.9 °C 1018.8 hPa West 0.5 km/h 1.9 km/h 85 % 0 mm
14:28 16.7 °C 14.1 °C 1018.8 hPa West 0.6 km/h 3.7 km/h 85 % 0 mm
14:33 16.8 °C 13.9 °C 1018.8 hPa WNW 0.3 km/h 1.9 km/h 83 % 0 mm
14:38 16.9 °C 14.4 °C 1018.8 hPa NW 1.8 km/h 5.6 km/h 85 % 0 mm
14:43 17.2 °C 14.3 °C 1018.8 hPa NW 2.4 km/h 5.6 km/h 83 % 0 mm
14:48 17.3 °C 14.4 °C 1018.8 hPa North 3.1 km/h 5.6 km/h 83 % 0 mm
14:53 17.5 °C 14.2 °C 1018.8 hPa North 0.3 km/h 3.7 km/h 81 % 0 mm
14:58 17.7 °C 14.6 °C 1018.8 hPa North 0.6 km/h 1.9 km/h 82 % 0 mm
15:03 17.9 °C 14.6 °C 1018.5 hPa North 0.6 km/h 3.7 km/h 81 % 0 mm
15:08 18.1 °C 14.8 °C 1018.8 hPa North 3.4 km/h 5.6 km/h 81 % 0 mm
15:13 18.3 °C 15 °C 1018.5 hPa NW 0.5 km/h 1.9 km/h 81 % 0 mm
15:19 18.6 °C 15.1 °C 1018.8 hPa NW 1.6 km/h 3.7 km/h 80 % 0 mm
15:24 18.8 °C 15.3 °C 1018.8 hPa NNW 0.6 km/h 3.7 km/h 80 % 0 mm
15:29 19.1 °C 15.6 °C 1018.5 hPa NNW 1.1 km/h 5.6 km/h 80 % 0 mm
15:34 19.4 °C 14.8 °C 1018.5 hPa NNW 1.9 km/h 5.6 km/h 75 % 0 mm
15:39 19.7 °C 15.3 °C 1018.5 hPa North 1.8 km/h 5.6 km/h 76 % 0 mm
15:44 19.9 °C 15.4 °C 1018.5 hPa North 1.8 km/h 3.7 km/h 75 % 0 mm
15:49 20.1 °C 15.3 °C 1018.5 hPa North 1 km/h 1.9 km/h 74 % 0 mm
15:54 20.3 °C 15.1 °C 1018.5 hPa SW 0.3 km/h 1.9 km/h 72 % 0 mm
15:59 20.5 °C 14.4 °C 1018.5 hPa West 1.8 km/h 4.8 km/h 68 % 0 mm
16:04 20.7 °C 15 °C 1018.5 hPa Calm   1.6 km/h 70 % 0 mm
16:09 20.7 °C 15.1 °C 1018.5 hPa West 1.4 km/h 1.6 km/h 70 % 0 mm
16:14 20.8 °C 14.5 °C 1018.5 hPa West 2.4 km/h 4.8 km/h 67 % 0 mm
16:19 21 °C 14.2 °C 1018.5 hPa SW 3.2 km/h 7.4 km/h 65 % 0 mm
16:24 21.1 °C 13.6 °C 1018.5 hPa West 5.8 km/h 9.3 km/h 62 % 0 mm
16:29 21.2 °C 13.6 °C 1018.5 hPa WNW 5.6 km/h 11.1 km/h 62 % 0 mm
16:34 21.2 °C 13.6 °C 1018.5 hPa NW 1.6 km/h 5.6 km/h 62 % 0 mm
16:39 21.2 °C 13.7 °C 1018.5 hPa WSW 2.7 km/h 11.1 km/h 62 % 0 mm
16:44 21.3 °C 13.8 °C 1018.5 hPa WSW 1.8 km/h 6.4 km/h 62 % 0 mm
16:49 21.3 °C 13.5 °C 1018.2 hPa WSW 6.8 km/h 11.1 km/h 61 % 0 mm
16:54 21.3 °C 13.8 °C 1018.5 hPa SW 4.7 km/h 9.3 km/h 62 % 0 mm
16:59 21.4 °C 13.8 °C 1018.5 hPa WSW 3.9 km/h 9.7 km/h 62 % 0 mm
17:04 21.6 °C 13.9 °C 1018.5 hPa West 1 km/h 4.8 km/h 62 % 0 mm
17:09 21.7 °C 13.8 °C 1018.5 hPa WNW 6.4 km/h 12.9 km/h 61 % 0 mm
17:15 21.7 °C 13.6 °C 1018.5 hPa WSW 7.4 km/h 13 km/h 60 % 0 mm
17:20 21.8 °C 13.7 °C 1018.5 hPa WSW 5.8 km/h 9.7 km/h 60 % 0 mm
17:25 21.8 °C 13.7 °C 1018.5 hPa West 8.5 km/h 13 km/h 60 % 0 mm
17:30 22 °C 13.6 °C 1018.5 hPa West 4 km/h 11.1 km/h 59 % 0 mm
17:35 22.1 °C 13.7 °C 1018.5 hPa West 4.8 km/h 9.3 km/h 59 % 0 mm
17:40 22 °C 13.9 °C 1018.5 hPa West 2.3 km/h 5.6 km/h 60 % 0 mm
17:45 21.9 °C 13.8 °C 1018.8 hPa West 2.7 km/h 5.6 km/h 60 % 0 mm
17:50 21.8 °C 14 °C 1018.8 hPa WSW 1.3 km/h 3.7 km/h 61 % 0 mm
17:55 21.8 °C 14 °C 1018.8 hPa West 5 km/h 7.4 km/h 61 % 0 mm
18:00 21.9 °C 14 °C 1018.8 hPa WSW 2.6 km/h 6.4 km/h 61 % 0 mm
18:05 21.8 °C 13.9 °C 1018.8 hPa SW 4.5 km/h 6.4 km/h 61 % 0 mm
18:10 21.7 °C 13.8 °C 1018.8 hPa SSW 1.6 km/h 5.6 km/h 61 % 0 mm
18:15 21.7 °C 14.1 °C 1018.8 hPa SW 1.3 km/h 6.4 km/h 62 % 0 mm
18:20 21.6 °C 13.9 °C 1018.8 hPa WSW 0.3 km/h 3.7 km/h 62 % 0 mm
18:25 21.4 °C 13.8 °C 1018.8 hPa Calm     62 % 0 mm
18:30 21.4 °C 13.6 °C 1018.8 hPa WSW 1.4 km/h 3.2 km/h 61 % 0 mm
18:35 21.4 °C 13.6 °C 1018.8 hPa Calm     61 % 0 mm
18:40 21.4 °C 13.8 °C 1018.8 hPa Calm     62 % 0 mm
18:45 21.3 °C 13.7 °C 1018.8 hPa Calm     62 % 0 mm
18:50 21.2 °C 13.7 °C 1018.8 hPa Calm   1.9 km/h 62 % 0 mm
18:55 21.1 °C 13.8 °C 1018.8 hPa Calm     63 % 0 mm
19:00 21.1 °C 14 °C 1018.8 hPa Calm     64 % 0 mm
19:05 20.9 °C 13.9 °C 1018.8 hPa Calm     64 % 0 mm
19:10 20.8 °C 13.8 °C 1018.8 hPa Calm     64 % 0 mm
19:15 20.7 °C 13.7 °C 1018.8 hPa Calm     64 % 0 mm
19:20 20.6 °C 13.7 °C 1019.2 hPa Calm     65 % 0 mm
19:25 20.4 °C 13.6 °C 1019.2 hPa Calm     65 % 0 mm
19:26 20.3 °C 13.6 °C 1019.2 hPa Calm     65 % 0 mm
19:31 20.2 °C 13.4 °C 1019.2 hPa Calm     65 % 0 mm
19:36 20 °C 13.4 °C 1019.2 hPa Calm     66 % 0 mm
19:41 19.8 °C 13.5 °C 1019.5 hPa Calm     67 % 0 mm
19:46 19.7 °C 13.6 °C 1019.5 hPa Calm   1.9 km/h 68 % 0 mm
19:51 19.4 °C 13.4 °C 1019.5 hPa Calm     68 % 0 mm
19:56 19.2 °C 13.2 °C 1019.5 hPa Calm     68 % 0 mm
20:02 19 °C 13.2 °C 1019.9 hPa Calm   1.9 km/h 69 % 0 mm
20:07 18.8 °C 12.9 °C 1019.9 hPa Calm   1.9 km/h 69 % 0 mm
20:12 18.7 °C 13.1 °C 1019.9 hPa Calm     70 % 0 mm
20:17 18.5 °C 12.9 °C 1019.9 hPa Calm     70 % 0 mm
20:22 18.3 °C 13 °C 1020.2 hPa Calm     71 % 0 mm
20:27 18.1 °C 12.8 °C 1020.2 hPa Calm     71 % 0 mm
20:32 17.9 °C 12.8 °C 1020.5 hPa Calm     72 % 0 mm
20:42 17.6 °C 12.9 °C 1020.5 hPa NW 1.3 km/h 5.6 km/h 74 % 0 mm
20:47 17.3 °C 12.6 °C 1020.9 hPa Calm     74 % 0 mm
20:52 17.1 °C 12.6 °C 1020.9 hPa Calm     75 % 0 mm
20:57 16.8 °C 12.3 °C 1020.9 hPa Calm     75 % 0 mm
21:02 16.6 °C 12.1 °C 1020.9 hPa Calm     75 % 0 mm
21:07 16.3 °C 12.1 °C 1021.2 hPa Calm     76 % 0 mm
21:12 16.1 °C 11.9 °C 1021.2 hPa Calm     76 % 0 mm
21:17 15.8 °C 11.4 °C 1021.2 hPa NW 0.6 km/h 1.9 km/h 75 % 0 mm
21:22 15.6 °C 11.4 °C 1021.2 hPa Calm     76 % 0 mm
21:27 15.4 °C 11.2 °C 1021.2 hPa Calm     76 % 0 mm
21:37 15.2 °C 11.2 °C 1021.6 hPa NW 1 km/h 1.9 km/h 77 % 0 mm
21:42 14.9 °C 11.2 °C 1021.6 hPa Calm   1.9 km/h 78 % 0 mm
21:47 14.8 °C 11.2 °C 1021.6 hPa Calm     79 % 0 mm
21:52 14.7 °C 11.3 °C 1021.6 hPa Calm     80 % 0 mm
21:57 14.6 °C 11.5 °C 1021.6 hPa WSW 3.2 km/h 6.4 km/h 82 % 0 mm
22:02 14.5 °C 11.7 °C 1021.6 hPa SW 1.6 km/h 3.7 km/h 83 % 0 mm
22:07 14.5 °C 11.8 °C 1021.6 hPa SW 1.6 km/h 4.8 km/h 84 % 0 mm
22:12 14.4 °C 11.6 °C 1021.6 hPa Calm   1.6 km/h 83 % 0 mm
22:17 14.4 °C 11.6 °C 1021.6 hPa SW 1.6 km/h 4.8 km/h 83 % 0 mm
22:22 14.3 °C 11.5 °C 1021.9 hPa SW 1.6 km/h 4.8 km/h 83 % 0 mm
22:27 14.3 °C 11.6 °C 1021.9 hPa Calm     84 % 0 mm
22:32 14.2 °C 11.3 °C 1021.9 hPa Calm     83 % 0 mm
22:34 14.2 °C 11.3 °C 1021.9 hPa Calm   3.7 km/h 83 % 0 mm
22:39 14.1 °C 11.3 °C 1021.9 hPa Calm     83 % 0 mm
22:44 14 °C 11.2 °C 1021.9 hPa Calm     83 % 0 mm
22:49 13.9 °C 11.1 °C 1021.9 hPa Calm     83 % 0 mm
22:50 13.9 °C 11.1 °C 1021.9 hPa Calm     83 % 0 mm
22:55 13.8 °C 11.1 °C 1021.9 hPa SW 0.2 km/h 1.6 km/h 84 % 0 mm
23:00 13.7 °C 11.2 °C 1021.9 hPa Calm     85 % 0 mm
23:06 13.6 °C 11.1 °C 1022.2 hPa SW 1.1 km/h 3.7 km/h 85 % 0 mm
23:11 13.4 °C 10.9 °C 1022.2 hPa Calm     85 % 0 mm
23:16 13.3 °C 11.1 °C 1022.2 hPa SW 1.6 km/h 3.7 km/h 86 % 0 mm
23:21 13.2 °C 10.9 °C 1022.6 hPa NW 2.4 km/h 5.6 km/h 86 % 0 mm
23:26 13.1 °C 10.8 °C 1022.6 hPa NW 0.3 km/h 3.7 km/h 86 % 0 mm
23:31 13.1 °C 10.8 °C 1022.6 hPa NW 0.2 km/h 1.9 km/h 86 % 0 mm
23:36 12.9 °C 10.4 °C 1022.9 hPa Calm     85 % 0 mm
23:41 12.7 °C 10.1 °C 1022.9 hPa North 0.3 km/h 3.7 km/h 84 % 0 mm
23:46 12.6 °C 10.2 °C 1022.9 hPa Calm   3.7 km/h 85 % 0 mm
23:51 12.5 °C 10.1 °C 1022.9 hPa NNW 4.7 km/h 7.4 km/h 85 % 0 mm
23:56 12.4 °C 10 °C 1022.9 hPa NNW 5.5 km/h 8 km/h 85 % 0 mm
Crab Meadow Weather
Compliments of Weather Underground - 3 mb

Script developed by  Jim McMurry - jmcmurry@mwt.net Adapted for the template by  Wim van der Kuil - Leuven-Template.eu

Weather Terms: Wind Advisory - Sustained winds of 30 mph or greater or gusts to 45 mph or greater for a duration of one hour or longer.